Time;durP1;ratioP1;P1;durP2;ratioP2;P2;SDS_P1;SDS_P2;PMS_P1;PMS_P2;Temp;Humidity;BMP_temperature;BMP_pressure;BME280_temperature;BME280_humidity;BME280_pressure;Samples;Min_cycle;Max_cycle;Signal;HPM_P1;HPM_P2
2023/11/24 00:01:51;;;;;;;;;;;17.90;91.60;;;;;;5014491;28;19935;-80
2023/11/24 00:04:17;;;;;;;;;;;17.70;91.70;;;;;;5013796;28;19980;-81
2023/11/24 00:06:43;;;;;;;;;;;17.60;91.60;;;;;;5014197;28;20016;-81
2023/11/24 00:09:09;;;;;;;;;;;17.80;91.70;;;;;;5013972;28;20364;-81
2023/11/24 00:11:34;;;;;;;;;;;17.70;91.70;;;;;;5013574;28;20004;-81
2023/11/24 00:14:00;;;;;;;;;;;17.40;91.50;;;;;;5014451;28;19910;-81
2023/11/24 00:16:28;;;;;;;;;;;17.60;91.60;;;;;;5013971;28;19910;-81
2023/11/24 00:18:54;;;;;;;;;;;17.70;91.30;;;;;;5014303;28;19913;-81
2023/11/24 00:21:20;;;;;;;;;;;17.60;91.40;;;;;;5014175;28;19955;-81
2023/11/24 00:23:45;;;;;;;;;;;17.70;91.50;;;;;;5013857;28;20442;-81
2023/11/24 00:26:11;;;;;;;;;;;17.60;91.30;;;;;;5013680;28;20016;-80
2023/11/24 00:28:36;;;;;;;;;;;17.60;91.30;;;;;;5013786;28;20279;-81
2023/11/24 00:31:05;;;;;;;;;;;17.50;91.30;;;;;;5013737;28;19913;-81
2023/11/24 00:33:31;;;;;;;;;;;17.60;91.40;;;;;;5013623;28;19910;-81
2023/11/24 00:35:56;;;;;;;;;;;17.30;91.30;;;;;;5013715;28;19956;-81
2023/11/24 00:38:22;;;;;;;;;;;17.70;91.50;;;;;;5013702;28;19915;-81
2023/11/24 00:40:48;;;;;;;;;;;17.60;91.40;;;;;;5014004;28;20426;-81
2023/11/24 00:43:13;;;;;;;;;;;17.50;91.40;;;;;;5013666;28;19917;-81
2023/11/24 00:45:39;;;;;;;;;;;17.60;91.40;;;;;;5013382;28;19967;-81
2023/11/24 00:48:06;;;;;;;;;;;17.50;91.30;;;;;;5013391;28;19909;-80
2023/11/24 00:50:34;;;;;;;;;;;17.50;91.20;;;;;;5013549;28;20000;-81
2023/11/24 00:53:01;;;;;;;;;;;17.40;88.20;;;;;;5013604;28;19914;-81
2023/11/24 00:55:27;;;;;;;;;;;17.60;91.60;;;;;;5013440;28;19962;-81
2023/11/24 00:57:53;;;;;;;;;;;17.50;91.40;;;;;;5013159;28;19992;-80
2023/11/24 01:00:19;;;;;;;;;;;17.70;91.50;;;;;;5013374;28;19944;-80
2023/11/24 01:02:44;;;;;;;;;;;17.40;91.30;;;;;;4995442;28;19939;-80
2023/11/24 01:05:10;;;;;;;;;;;17.50;91.50;;;;;;5019705;28;19916;-81
2023/11/24 01:07:36;;;;;;;;;;;17.50;91.50;;;;;;5013082;28;19917;-81
2023/11/24 01:10:01;;;;;;;;;;;17.30;91.40;;;;;;5013190;28;20349;-81
2023/11/24 01:12:27;;;;;;;;;;;17.40;91.50;;;;;;5013018;28;19913;-81
2023/11/24 01:14:52;;;;;;;;;;;17.40;91.50;;;;;;5013014;28;19909;-81
2023/11/24 01:17:18;;;;;;;;;;;17.50;91.50;;;;;;5012204;28;19914;-80
2023/11/24 01:19:44;;;;;;;;;;;17.60;91.50;;;;;;5013238;28;20275;-80
2023/11/24 01:22:09;;;;;;;;;;;17.50;91.50;;;;;;5012975;28;19909;-80
2023/11/24 01:24:35;;;;;;;;;;;17.40;91.40;;;;;;5012930;28;19968;-80
2023/11/24 01:27:03;;;;;;;;;;;17.40;91.50;;;;;;5012640;28;19991;-79
2023/11/24 01:29:28;;;;;;;;;;;17.30;91.10;;;;;;5013557;28;20272;-79
2023/11/24 01:31:54;;;;;;;;;;;17.40;91.50;;;;;;5012745;28;19909;-79
2023/11/24 01:34:20;;;;;;;;;;;17.40;91.40;;;;;;5012965;28;19916;-80
2023/11/24 01:36:47;;;;;;;;;;;17.40;91.50;;;;;;5012567;28;20305;-79
2023/11/24 01:39:14;;;;;;;;;;;17.70;91.60;;;;;;5012591;28;19909;-80
2023/11/24 01:41:40;;;;;;;;;;;17.70;91.50;;;;;;5012670;28;19949;-80
2023/11/24 01:44:08;;;;;;;;;;;17.40;91.40;;;;;;5012716;28;19997;-80
2023/11/24 01:46:51;;;;;;;;;;;17.50;91.40;;;;;;5011196;28;19917;-80
2023/11/24 01:49:17;;;;;;;;;;;17.60;91.50;;;;;;5012842;28;19964;-80
2023/11/24 01:51:43;;;;;;;;;;;17.40;91.40;;;;;;5012542;28;19910;-79
2023/11/24 01:54:09;;;;;;;;;;;17.30;91.30;;;;;;5012481;28;19917;-80
2023/11/24 01:56:35;;;;;;;;;;;17.30;91.40;;;;;;5012940;28;20319;-79
2023/11/24 01:59:02;;;;;;;;;;;17.30;91.40;;;;;;5012439;28;19916;-79
2023/11/24 02:01:29;;;;;;;;;;;17.30;91.10;;;;;;5012679;28;19914;-80
2023/11/24 02:03:55;;;;;;;;;;;17.30;91.30;;;;;;5012247;28;20391;-80
2023/11/24 02:06:21;;;;;;;;;;;17.00;91.10;;;;;;5012319;28;20396;-79
2023/11/24 02:08:47;;;;;;;;;;;17.20;91.20;;;;;;5012762;28;20288;-80
2023/11/24 02:11:13;;;;;;;;;;;17.30;91.10;;;;;;5012614;28;19937;-80
2023/11/24 02:13:39;;;;;;;;;;;17.20;91.20;;;;;;5012789;28;19910;-80
2023/11/24 02:16:05;;;;;;;;;;;17.20;91.10;;;;;;5012453;28;20291;-80
2023/11/24 02:18:31;;;;;;;;;;;17.30;90.60;;;;;;5012619;28;19909;-80
2023/11/24 02:21:00;;;;;;;;;;;17.20;91.20;;;;;;5012688;28;20071;-80
2023/11/24 02:23:27;;;;;;;;;;;17.20;91.20;;;;;;5012477;28;19917;-80
2023/11/24 02:25:53;;;;;;;;;;;17.20;91.10;;;;;;5013126;28;19921;-79
2023/11/24 02:28:19;;;;;;;;;;;17.20;91.40;;;;;;5014035;28;20380;-79
2023/11/24 02:30:45;;;;;;;;;;;18.00;91.40;;;;;;5016498;28;19910;-79
2023/11/24 02:33:11;;;;;;;;;;;17.20;91.30;;;;;;5016266;28;20335;-79
2023/11/24 02:35:39;;;;;;;;;;;17.10;91.10;;;;;;5016470;28;19909;-78
2023/11/24 02:38:06;;;;;;;;;;;17.30;91.30;;;;;;5016065;28;19964;-80
2023/11/24 02:40:32;;;;;;;;;;;17.10;91.30;;;;;;5015976;28;19909;-79
2023/11/24 02:42:59;;;;;;;;;;;17.00;91.10;;;;;;5015879;28;20000;-80
2023/11/24 02:45:25;;;;;;;;;;;17.10;91.20;;;;;;5015694;28;19936;-80
2023/11/24 02:47:51;;;;;;;;;;;17.00;91.00;;;;;;5016080;28;19929;-80
2023/11/24 02:50:17;;;;;;;;;;;17.10;91.30;;;;;;5015939;28;20269;-79
2023/11/24 02:52:44;;;;;;;;;;;17.40;91.20;;;;;;5015739;28;19948;-79
2023/11/24 02:55:10;;;;;;;;;;;17.10;91.30;;;;;;5016115;28;19909;-79
2023/11/24 02:57:36;;;;;;;;;;;17.00;91.00;;;;;;5015897;28;20406;-79
2023/11/24 03:00:02;;;;;;;;;;;17.00;91.30;;;;;;5015643;28;19910;-79
2023/11/24 03:02:28;;;;;;;;;;;17.00;91.10;;;;;;5015297;28;19913;-80
2023/11/24 03:04:53;;;;;;;;;;;17.00;91.30;;;;;;5015398;28;19944;-79
2023/11/24 03:07:19;;;;;;;;;;;17.10;91.30;;;;;;5015399;28;19971;-79
2023/11/24 03:09:45;;;;;;;;;;;17.00;91.30;;;;;;5015304;28;19948;-80
2023/11/24 03:12:11;;;;;;;;;;;16.90;91.20;;;;;;5015517;28;19910;-79
2023/11/24 03:14:38;;;;;;;;;;;17.00;91.20;;;;;;5015261;28;19910;-79
2023/11/24 03:17:03;;;;;;;;;;;16.90;91.20;;;;;;5015459;28;19956;-79
2023/11/24 03:19:29;;;;;;;;;;;17.00;91.30;;;;;;5015206;28;19964;-79
2023/11/24 03:21:54;;;;;;;;;;;15.70;90.70;;;;;;5015599;28;19909;-79
2023/11/24 03:24:20;;;;;;;;;;;17.10;91.30;;;;;;5014551;28;20341;-79
2023/11/24 03:26:45;;;;;;;;;;;17.00;91.40;;;;;;5014923;28;19918;-79
2023/11/24 03:29:11;;;;;;;;;;;17.00;91.30;;;;;;5015065;28;19909;-79
2023/11/24 03:31:39;;;;;;;;;;;16.90;91.30;;;;;;5014874;28;20307;-80
2023/11/24 03:34:05;;;;;;;;;;;16.90;91.40;;;;;;5015092;28;19909;-80
2023/11/24 03:36:30;;;;;;;;;;;16.90;91.50;;;;;;5015155;28;19917;-80
2023/11/24 03:38:56;;;;;;;;;;;16.90;91.40;;;;;;5014310;28;19925;-81
2023/11/24 03:41:22;;;;;;;;;;;16.80;91.50;;;;;;5014398;28;19916;-80
2023/11/24 03:43:47;;;;;;;;;;;17.00;91.40;;;;;;5014731;28;19921;-80
2023/11/24 03:46:13;;;;;;;;;;;16.90;91.50;;;;;;5014657;28;19917;-80
2023/11/24 03:48:38;;;;;;;;;;;16.90;91.40;;;;;;5014433;28;19909;-80
2023/11/24 03:51:05;;;;;;;;;;;16.90;91.50;;;;;;5015049;28;19909;-80
2023/11/24 03:53:31;;;;;;;;;;;17.00;91.10;;;;;;5014470;28;20273;-80
2023/11/24 03:55:56;;;;;;;;;;;17.00;91.30;;;;;;5014502;28;19936;-79
2023/11/24 03:58:22;;;;;;;;;;;16.90;91.30;;;;;;5014412;28;19909;-80
2023/11/24 04:00:48;;;;;;;;;;;16.90;91.40;;;;;;5014414;28;19913;-80
2023/11/24 04:03:14;;;;;;;;;;;16.90;91.20;;;;;;5014172;28;19918;-80
2023/11/24 04:05:40;;;;;;;;;;;16.90;91.40;;;;;;5014158;28;19910;-81
2023/11/24 04:08:05;;;;;;;;;;;16.90;91.50;;;;;;5014342;28;19934;-80
2023/11/24 04:10:31;;;;;;;;;;;16.80;91.40;;;;;;5014274;28;20008;-80
2023/11/24 04:12:57;;;;;;;;;;;16.90;91.30;;;;;;5014417;28;19921;-80
2023/11/24 04:15:23;;;;;;;;;;;17.00;91.40;;;;;;5014312;28;20364;-80
2023/11/24 04:17:49;;;;;;;;;;;16.90;91.20;;;;;;5014226;28;19910;-80
2023/11/24 04:20:15;;;;;;;;;;;16.80;91.40;;;;;;5014649;28;20284;-80
2023/11/24 04:22:41;;;;;;;;;;;16.80;91.30;;;;;;5013892;28;19909;-80
2023/11/24 04:25:08;;;;;;;;;;;16.80;91.20;;;;;;5014165;28;19917;-80
2023/11/24 04:27:34;;;;;;;;;;;16.90;91.30;;;;;;5013980;28;20292;-80
2023/11/24 04:30:00;;;;;;;;;;;16.80;91.10;;;;;;5013913;28;19917;-80
2023/11/24 04:32:25;;;;;;;;;;;16.90;91.30;;;;;;5013768;28;19910;-80
2023/11/24 04:34:51;;;;;;;;;;;16.80;91.30;;;;;;5013656;28;19955;-80
2023/11/24 04:37:18;;;;;;;;;;;16.80;91.30;;;;;;5013782;28;19909;-81
2023/11/24 04:39:44;;;;;;;;;;;16.80;91.40;;;;;;5013601;28;19909;-80
2023/11/24 04:42:10;;;;;;;;;;;16.90;91.40;;;;;;5013635;28;19909;-79
2023/11/24 04:44:36;;;;;;;;;;;17.00;91.40;;;;;;5013662;28;19916;-80
2023/11/24 04:47:03;;;;;;;;;;;16.80;91.40;;;;;;5014017;28;20360;-81
2023/11/24 04:49:28;;;;;;;;;;;16.80;91.40;;;;;;5013532;28;20380;-81
2023/11/24 04:51:54;;;;;;;;;;;16.70;91.30;;;;;;5013331;28;19956;-81
2023/11/24 04:54:21;;;;;;;;;;;16.80;91.50;;;;;;5013527;28;19955;-81
2023/11/24 04:56:47;;;;;;;;;;;16.80;91.40;;;;;;5013394;28;19933;-81
2023/11/24 04:59:12;;;;;;;;;;;16.80;91.50;;;;;;5013451;28;20387;-81
2023/11/24 05:01:37;;;;;;;;;;;16.70;91.20;;;;;;5013321;28;19913;-81
2023/11/24 05:04:03;;;;;;;;;;;16.80;91.60;;;;;;5013138;28;19928;-81
2023/11/24 05:06:29;;;;;;;;;;;16.80;91.10;;;;;;5013536;28;19924;-81
2023/11/24 05:08:55;;;;;;;;;;;16.80;91.40;;;;;;5013308;28;20315;-81
2023/11/24 05:11:21;;;;;;;;;;;16.80;91.60;;;;;;5013154;28;19910;-81
2023/11/24 05:13:48;;;;;;;;;;;16.60;91.70;;;;;;5013056;28;19932;-81
2023/11/24 05:16:13;;;;;;;;;;;16.80;91.50;;;;;;5013803;28;19916;-81
2023/11/24 05:18:39;;;;;;;;;;;16.80;91.60;;;;;;5013281;28;19996;-80
2023/11/24 05:21:05;;;;;;;;;;;16.90;91.60;;;;;;5013003;28;19910;-80
2023/11/24 05:23:33;;;;;;;;;;;16.80;91.30;;;;;;5013236;28;19909;-80
2023/11/24 05:26:00;;;;;;;;;;;17.10;91.60;;;;;;5012913;28;19918;-80
2023/11/24 05:28:26;;;;;;;;;;;16.80;91.60;;;;;;5013122;28;20008;-81
2023/11/24 05:30:52;;;;;;;;;;;16.80;91.60;;;;;;5012847;28;19949;-80
2023/11/24 05:33:18;;;;;;;;;;;16.70;91.60;;;;;;5013059;28;20356;-80
2023/11/24 05:35:44;;;;;;;;;;;16.90;91.70;;;;;;5013230;28;19914;-81
2023/11/24 05:38:10;;;;;;;;;;;16.80;91.70;;;;;;5012749;28;19916;-80
2023/11/24 05:40:35;;;;;;;;;;;16.80;91.60;;;;;;5012693;28;19909;-81
2023/11/24 05:43:01;;;;;;;;;;;16.70;91.70;;;;;;5012935;28;19910;-81
2023/11/24 05:45:29;;;;;;;;;;;16.80;91.60;;;;;;5013231;28;19913;-80
2023/11/24 05:47:55;;;;;;;;;;;16.60;91.40;;;;;;5012725;28;19973;-80
2023/11/24 05:50:22;;;;;;;;;;;16.70;91.60;;;;;;4994862;28;20014;-80
2023/11/24 05:52:48;;;;;;;;;;;16.70;91.50;;;;;;5012788;28;19914;-80
2023/11/24 05:55:15;;;;;;;;;;;16.60;91.50;;;;;;5012555;28;20426;-81
2023/11/24 05:57:40;;;;;;;;;;;16.70;91.90;;;;;;5012699;28;20024;-80
2023/11/24 06:00:08;;;;;;;;;;;16.70;91.70;;;;;;4994890;28;20364;-80
2023/11/24 06:02:34;;;;;;;;;;;16.60;91.50;;;;;;5013276;28;20028;-80
2023/11/24 06:05:00;;;;;;;;;;;16.70;91.70;;;;;;5016344;28;20020;-80
2023/11/24 06:07:26;;;;;;;;;;;16.60;91.60;;;;;;5016352;28;20020;-80
2023/11/24 06:09:52;;;;;;;;;;;16.70;91.80;;;;;;5016701;28;19917;-80
2023/11/24 06:12:18;;;;;;;;;;;17.00;91.60;;;;;;5016489;28;19913;-80
2023/11/24 06:14:44;;;;;;;;;;;16.90;91.60;;;;;;5017172;28;19952;-82
2023/11/24 06:17:11;;;;;;;;;;;16.70;91.80;;;;;;5016403;28;19999;-81
2023/11/24 06:19:37;;;;;;;;;;;16.70;91.80;;;;;;5016126;28;19955;-81
2023/11/24 06:22:03;;;;;;;;;;;16.70;91.70;;;;;;5016192;28;19909;-81
2023/11/24 06:24:28;;;;;;;;;;;16.60;91.30;;;;;;5016140;28;20347;-81
2023/11/24 06:26:54;;;;;;;;;;;16.50;91.40;;;;;;5015982;28;19924;-81
2023/11/24 06:29:19;;;;;;;;;;;16.60;91.60;;;;;;5016247;28;19909;-81
2023/11/24 06:31:45;;;;;;;;;;;16.70;91.60;;;;;;5016062;28;19949;-81
2023/11/24 06:34:10;;;;;;;;;;;16.70;91.60;;;;;;5015852;28;19996;-81
2023/11/24 06:36:36;;;;;;;;;;;16.70;91.60;;;;;;5015808;28;20276;-81
2023/11/24 06:39:11;;;;;;;;;;;16.90;91.60;;;;;;5015817;28;20391;-81
2023/11/24 06:41:37;;;;;;;;;;;16.60;88.70;;;;;;5016264;28;20435;-71
2023/11/24 06:44:03;;;;;;;;;;;16.70;91.60;;;;;;5015956;28;19910;-71
2023/11/24 06:46:28;;;;;;;;;;;16.60;91.50;;;;;;5015420;28;19924;-72
2023/11/24 06:48:54;;;;;;;;;;;16.60;91.40;;;;;;5015588;28;19957;-72
2023/11/24 06:51:20;;;;;;;;;;;16.60;91.20;;;;;;5015458;28;19909;-72
2023/11/24 06:53:45;;;;;;;;;;;16.60;91.30;;;;;;5015598;28;20403;-74
2023/11/24 06:56:11;;;;;;;;;;;16.60;91.40;;;;;;5015598;28;19949;-73
2023/11/24 06:58:37;;;;;;;;;;;16.60;91.60;;;;;;5015527;28;20004;-73
2023/11/24 07:01:04;;;;;;;;;;;16.70;91.70;;;;;;5015374;28;19910;-75
2023/11/24 07:03:30;;;;;;;;;;;16.60;91.40;;;;;;5015124;28;20396;-74
2023/11/24 07:05:56;;;;;;;;;;;16.60;91.40;;;;;;5015318;28;20338;-73
2023/11/24 07:08:21;;;;;;;;;;;16.60;91.50;;;;;;5015225;28;19920;-72
2023/11/24 07:10:47;;;;;;;;;;;16.60;91.30;;;;;;5015297;28;19929;-71
2023/11/24 07:13:12;;;;;;;;;;;16.40;91.50;;;;;;4997540;28;19917;-71
2023/11/24 07:15:38;;;;;;;;;;;16.60;91.40;;;;;;5014027;28;19920;-71
2023/11/24 07:18:03;;;;;;;;;;;16.60;91.40;;;;;;5015115;28;20007;-72
2023/11/24 07:20:30;;;;;;;;;;;16.60;91.40;;;;;;5015197;28;19916;-71
2023/11/24 07:22:55;;;;;;;;;;;16.60;91.60;;;;;;4997846;28;19910;-71
2023/11/24 07:25:21;;;;;;;;;;;16.60;91.40;;;;;;5015046;28;19916;-71
2023/11/24 07:27:47;;;;;;;;;;;16.60;91.60;;;;;;5015740;28;19929;-71
2023/11/24 07:30:13;;;;;;;;;;;16.60;91.60;;;;;;5015194;28;19909;-71
2023/11/24 07:32:39;;;;;;;;;;;16.50;91.20;;;;;;5014844;28;19956;-71
2023/11/24 07:35:06;;;;;;;;;;;16.60;91.50;;;;;;5015201;28;19909;-71
2023/11/24 07:37:31;;;;;;;;;;;16.50;91.20;;;;;;5014626;28;20387;-71
2023/11/24 07:39:57;;;;;;;;;;;16.50;91.60;;;;;;5015094;28;19914;-71
2023/11/24 07:42:23;;;;;;;;;;;16.60;91.40;;;;;;5015095;28;19913;-72
2023/11/24 07:44:49;;;;;;;;;;;16.50;91.40;;;;;;5015306;28;19910;-70
2023/11/24 07:47:18;;;;;;;;;;;16.80;91.30;;;;;;5014872;28;19971;-75
2023/11/24 07:49:47;;;;;;;;;;;16.60;91.60;;;;;;5014962;28;20248;-70
2023/11/24 07:52:13;;;;;;;;;;;16.50;88.20;;;;;;5014585;28;19913;-69
2023/11/24 07:54:42;;;;;;;;;;;16.50;91.40;;;;;;5014425;28;19910;-70
2023/11/24 07:57:07;;;;;;;;;;;16.50;89.20;;;;;;5015038;28;20268;-71
2023/11/24 07:59:34;;;;;;;;;;;16.50;91.40;;;;;;5014552;28;19916;-72
2023/11/24 08:02:00;;;;;;;;;;;16.40;91.30;;;;;;5014645;28;19916;-70
2023/11/24 08:04:26;;;;;;;;;;;16.40;91.40;;;;;;5014136;28;19922;-70
2023/11/24 08:06:51;;;;;;;;;;;16.60;91.40;;;;;;5014159;28;19917;-70
2023/11/24 08:09:17;;;;;;;;;;;16.40;91.40;;;;;;5014295;28;19937;-71
2023/11/24 08:11:44;;;;;;;;;;;16.40;91.30;;;;;;5014381;28;19916;-71
2023/11/24 08:14:10;;;;;;;;;;;16.50;91.20;;;;;;5014155;28;20427;-71
2023/11/24 08:16:36;;;;;;;;;;;16.40;91.10;;;;;;5014363;28;20005;-70
2023/11/24 08:19:02;;;;;;;;;;;16.70;91.10;;;;;;5014382;28;19917;-71
2023/11/24 08:21:29;;;;;;;;;;;16.40;91.10;;;;;;5014292;28;20016;-71
2023/11/24 08:23:55;;;;;;;;;;;16.30;91.00;;;;;;5014018;28;20295;-71
2023/11/24 08:26:23;;;;;;;;;;;16.40;90.70;;;;;;5014039;28;19924;-71
2023/11/24 08:28:48;;;;;;;;;;;16.40;89.20;;;;;;5014156;28;19917;-71
2023/11/24 08:31:15;;;;;;;;;;;16.30;90.90;;;;;;5014151;28;19909;-71
2023/11/24 08:33:41;;;;;;;;;;;16.40;91.00;;;;;;5013698;28;20503;-71
2023/11/24 08:36:07;;;;;;;;;;;16.30;91.00;;;;;;5014109;28;19996;-71
2023/11/24 08:38:33;;;;;;;;;;;16.40;90.90;;;;;;5013874;28;20396;-71
2023/11/24 08:40:59;;;;;;;;;;;16.30;90.90;;;;;;5013761;28;19910;-71
2023/11/24 08:43:24;;;;;;;;;;;16.20;91.00;;;;;;5013662;28;19916;-71
2023/11/24 08:45:50;;;;;;;;;;;16.30;91.00;;;;;;5013395;28;20418;-71
2023/11/24 08:48:16;;;;;;;;;;;16.20;91.00;;;;;;5013851;28;19996;-71
2023/11/24 08:50:42;;;;;;;;;;;16.30;90.90;;;;;;5013735;28;19916;-71
2023/11/24 08:53:08;;;;;;;;;;;16.30;90.80;;;;;;5014003;28;19917;-71
2023/11/24 08:55:34;;;;;;;;;;;16.20;90.90;;;;;;5013752;28;19964;-71
2023/11/24 08:58:00;;;;;;;;;;;16.20;90.90;;;;;;5013687;28;19909;-71
2023/11/24 09:00:29;;;;;;;;;;;16.20;90.90;;;;;;5013398;28;19937;-71
2023/11/24 09:02:57;;;;;;;;;;;16.20;90.70;;;;;;5013024;28;19909;-72
2023/11/24 09:05:23;;;;;;;;;;;16.20;91.00;;;;;;5013365;28;19909;-71
2023/11/24 09:07:49;;;;;;;;;;;16.10;91.00;;;;;;5013467;28;19917;-71
2023/11/24 09:10:14;;;;;;;;;;;16.20;90.90;;;;;;5013538;28;19932;-71
2023/11/24 09:12:40;;;;;;;;;;;16.30;90.90;;;;;;5013157;28;19916;-71
2023/11/24 09:15:07;;;;;;;;;;;16.10;91.00;;;;;;5013153;28;19917;-71
2023/11/24 09:17:34;;;;;;;;;;;16.20;90.30;;;;;;5013055;28;19916;-71
2023/11/24 09:20:00;;;;;;;;;;;16.10;91.00;;;;;;5013299;28;19910;-71
2023/11/24 09:22:26;;;;;;;;;;;16.30;91.00;;;;;;5013309;28;20390;-71
2023/11/24 09:24:52;;;;;;;;;;;16.20;90.90;;;;;;5012926;28;19963;-71
2023/11/24 09:27:19;;;;;;;;;;;16.10;90.90;;;;;;5013117;28;19925;-71
2023/11/24 09:29:45;;;;;;;;;;;16.10;90.90;;;;;;5013218;28;20280;-71
2023/11/24 09:32:11;;;;;;;;;;;16.00;90.60;;;;;;5013158;28;19987;-75
2023/11/24 09:34:37;;;;;;;;;;;16.00;90.80;;;;;;5013516;28;19944;-75
2023/11/24 09:37:03;;;;;;;;;;;16.00;90.80;;;;;;5015677;28;20475;-71
2023/11/24 09:39:29;;;;;;;;;;;16.10;90.50;;;;;;5013097;28;19917;-71
2023/11/24 09:41:56;;;;;;;;;;;16.20;91.00;;;;;;5012978;28;19910;-70
2023/11/24 09:44:21;;;;;;;;;;;16.00;90.80;;;;;;5012706;28;19909;-70
2023/11/24 09:46:49;;;;;;;;;;;16.10;90.90;;;;;;5012589;28;20020;-70
2023/11/24 09:49:15;;;;;;;;;;;16.00;90.90;;;;;;5013705;28;19917;-71
2023/11/24 09:51:41;;;;;;;;;;;16.00;90.80;;;;;;5012988;28;19953;-72
2023/11/24 09:54:11;;;;;;;;;;;15.60;90.40;;;;;;5012575;28;19909;-71
2023/11/24 09:56:40;;;;;;;;;;;16.00;86.50;;;;;;5012918;28;19916;-70
2023/11/24 09:59:08;;;;;;;;;;;16.00;90.60;;;;;;5012997;28;19913;-69
2023/11/24 10:01:36;;;;;;;;;;;16.10;90.30;;;;;;5012878;28;19972;-71
2023/11/24 10:04:03;;;;;;;;;;;16.10;90.60;;;;;;5012459;28;19921;-70
2023/11/24 10:06:29;;;;;;;;;;;16.10;90.30;;;;;;5012764;28;20068;-71
2023/11/24 10:08:57;;;;;;;;;;;16.20;90.40;;;;;;5012779;28;19917;-69
2023/11/24 10:11:33;;;;;;;;;;;16.20;90.50;;;;;;5012510;28;20414;-70
2023/11/24 10:13:59;;;;;;;;;;;16.20;90.40;;;;;;5012523;28;19909;-70
2023/11/24 10:16:25;;;;;;;;;;;16.20;90.40;;;;;;5012763;28;20024;-69
2023/11/24 10:18:55;;;;;;;;;;;16.30;90.20;;;;;;5012478;28;20392;-70
2023/11/24 10:21:21;;;;;;;;;;;16.30;90.20;;;;;;5012759;28;19980;-71
2023/11/24 10:23:46;;;;;;;;;;;16.40;90.00;;;;;;5012494;28;20384;-70
2023/11/24 10:26:15;;;;;;;;;;;16.40;90.00;;;;;;5012279;28;19917;-71
2023/11/24 10:28:43;;;;;;;;;;;16.40;90.10;;;;;;5012339;28;20269;-71
2023/11/24 10:31:08;;;;;;;;;;;16.80;90.10;;;;;;5012256;28;19917;-70
2023/11/24 10:33:36;;;;;;;;;;;16.40;89.80;;;;;;5012244;28;19972;-70
2023/11/24 10:36:04;;;;;;;;;;;16.40;90.00;;;;;;5012133;28;19909;-70
2023/11/24 10:38:35;;;;;;;;;;;16.40;90.00;;;;;;5012264;28;19913;-71
2023/11/24 10:41:01;;;;;;;;;;;16.40;90.00;;;;;;5012459;28;19909;-70
2023/11/24 10:43:31;;;;;;;;;;;16.40;90.20;;;;;;5012441;28;19956;-70
2023/11/24 10:45:58;;;;;;;;;;;16.40;90.30;;;;;;5012309;28;19932;-71
2023/11/24 10:48:39;;;;;;;;;;;16.40;90.50;;;;;;5012879;28;19917;-71
2023/11/24 10:51:08;;;;;;;;;;;16.30;85.70;;;;;;5015685;28;20368;-71
2023/11/24 10:53:36;;;;;;;;;;;16.10;85.70;;;;;;5015899;28;19917;-70
2023/11/24 10:56:03;;;;;;;;;;;16.30;90.50;;;;;;5016133;28;19920;-70
2023/11/24 10:58:33;;;;;;;;;;;16.30;90.40;;;;;;5015528;28;19917;-71
2023/11/24 11:00:59;;;;;;;;;;;16.20;86.20;;;;;;5015604;28;19909;-71
2023/11/24 11:03:27;;;;;;;;;;;16.20;90.40;;;;;;5015351;28;19928;-70
2023/11/24 11:05:56;;;;;;;;;;;16.30;90.60;;;;;;5015894;28;20008;-71
2023/11/24 11:08:34;;;;;;;;;;;16.20;86.60;;;;;;5015468;28;19913;-70
2023/11/24 11:11:17;;;;;;;;;;;16.30;86.80;;;;;;5015457;28;19916;-70
2023/11/24 11:13:43;;;;;;;;;;;16.20;86.50;;;;;;5015462;28;20372;-69
2023/11/24 11:16:12;;;;;;;;;;;16.20;90.90;;;;;;5015464;28;19909;-70
2023/11/24 11:18:38;;;;;;;;;;;16.20;90.90;;;;;;5015480;28;19909;-70
2023/11/24 11:21:11;;;;;;;;;;;16.30;90.80;;;;;;5015252;28;19916;-69
2023/11/24 11:23:36;;;;;;;;;;;16.30;86.50;;;;;;5015822;28;20360;-69
2023/11/24 11:26:02;;;;;;;;;;;16.40;90.70;;;;;;5015348;28;19956;-69
2023/11/24 11:28:35;;;;;;;;;;;16.30;90.60;;;;;;5014946;28;19913;-70
2023/11/24 11:31:20;;;;;;;;;;;16.30;86.20;;;;;;5014917;28;20387;-70
2023/11/24 11:33:46;;;;;;;;;;;16.30;86.50;;;;;;4997378;28;20338;-69
2023/11/24 11:36:12;;;;;;;;;;;16.40;90.60;;;;;;5015290;28;19917;-76
2023/11/24 11:38:45;;;;;;;;;;;16.20;90.60;;;;;;5014882;28;20364;-83
2023/11/24 11:41:11;;;;;;;;;;;16.20;90.80;;;;;;5015074;28;19909;-76
2023/11/24 11:43:52;;;;;;;;;;;16.30;90.90;;;;;;5014876;28;19910;-76
2023/11/24 11:46:17;;;;;;;;;;;16.40;86.80;;;;;;5014733;28;20432;-75
2023/11/24 11:48:43;;;;;;;;;;;16.30;90.50;;;;;;5014698;28;19943;-76
2023/11/24 11:51:13;;;;;;;;;;;16.40;90.70;;;;;;5015478;28;19910;-71
2023/11/24 11:53:38;;;;;;;;;;;16.50;90.60;;;;;;5014548;28;20000;-70
2023/11/24 11:56:06;;;;;;;;;;;16.60;90.30;;;;;;5014631;28;19972;-69
2023/11/24 11:58:34;;;;;;;;;;;16.70;89.00;;;;;;5014694;28;19910;-70
2023/11/24 12:01:06;;;;;;;;;;;16.80;90.00;;;;;;5013700;28;20007;-69
2023/11/24 12:03:32;;;;;;;;;;;16.70;89.80;;;;;;5014346;28;19922;-70
2023/11/24 12:06:04;;;;;;;;;;;16.70;90.00;;;;;;5014271;28;20335;-69
2023/11/24 12:08:30;;;;;;;;;;;16.70;90.10;;;;;;5020760;28;19913;-70
2023/11/24 12:10:55;;;;;;;;;;;16.60;90.10;;;;;;5014285;28;20218;-73
2023/11/24 12:13:22;;;;;;;;;;;16.80;90.30;;;;;;5014066;28;19910;-71
2023/11/24 12:15:48;;;;;;;;;;;16.60;90.30;;;;;;5014084;28;19953;-71
2023/11/24 12:18:14;;;;;;;;;;;16.50;90.30;;;;;;5014134;28;20349;-71
2023/11/24 12:20:39;;;;;;;;;;;16.50;90.10;;;;;;5014564;28;20419;-70
2023/11/24 12:23:06;;;;;;;;;;;16.40;90.50;;;;;;5014073;28;19910;-70
2023/11/24 12:25:32;;;;;;;;;;;16.40;90.40;;;;;;4996406;28;19956;-70
2023/11/24 12:27:58;;;;;;;;;;;16.30;90.40;;;;;;5013883;28;19926;-71
2023/11/24 12:30:23;;;;;;;;;;;16.40;90.40;;;;;;5013894;28;19960;-71
2023/11/24 12:32:51;;;;;;;;;;;16.40;90.60;;;;;;5014040;28;19917;-71
2023/11/24 12:35:17;;;;;;;;;;;16.40;90.60;;;;;;5014046;28;20280;-70
2023/11/24 12:37:46;;;;;;;;;;;16.50;90.40;;;;;;5014005;28;19910;-68
2023/11/24 12:40:12;;;;;;;;;;;16.30;90.60;;;;;;5013698;28;19909;-69
2023/11/24 12:42:39;;;;;;;;;;;16.30;90.50;;;;;;5013847;28;19913;-71
2023/11/24 12:45:07;;;;;;;;;;;16.40;90.70;;;;;;5013588;28;19921;-69
2023/11/24 12:47:33;;;;;;;;;;;16.50;89.70;;;;;;5013436;28;20113;-69
2023/11/24 12:50:00;;;;;;;;;;;16.50;90.00;;;;;;5014419;28;19909;-69
2023/11/24 12:52:33;;;;;;;;;;;16.60;90.20;;;;;;5013778;28;19909;-69
2023/11/24 12:55:01;;;;;;;;;;;16.60;85.00;;;;;;5013305;28;19916;-69
2023/11/24 12:57:27;;;;;;;;;;;16.60;90.10;;;;;;5013386;28;19920;-69
2023/11/24 12:59:53;;;;;;;;;;;16.60;90.00;;;;;;5013466;28;20399;-70
2023/11/24 13:02:22;;;;;;;;;;;16.60;89.40;;;;;;5013561;28;19909;-69
2023/11/24 13:04:48;;;;;;;;;;;16.70;87.20;;;;;;5013066;28;19929;-69
2023/11/24 13:07:15;;;;;;;;;;;16.80;89.40;;;;;;5013295;28;20395;-69
2023/11/24 13:09:44;;;;;;;;;;;16.80;89.20;;;;;;5012818;28;20458;-69
2023/11/24 13:12:10;;;;;;;;;;;16.90;89.30;;;;;;5012202;28;19945;-72
2023/11/24 13:14:35;;;;;;;;;;;16.90;88.90;;;;;;5013181;28;19959;-70
2023/11/24 13:17:03;;;;;;;;;;;16.80;88.80;;;;;;5013568;28;19996;-70
2023/11/24 13:19:29;;;;;;;;;;;16.80;88.80;;;;;;5013210;28;19920;-69
2023/11/24 13:21:56;;;;;;;;;;;16.70;89.40;;;;;;5013097;28;19917;-70
2023/11/24 13:24:28;;;;;;;;;;;16.70;89.70;;;;;;5013052;28;20429;-70
2023/11/24 13:26:55;;;;;;;;;;;16.80;89.70;;;;;;5013141;28;20288;-70
2023/11/24 13:29:20;;;;;;;;;;;16.90;89.40;;;;;;5013198;28;19910;-70
2023/11/24 13:31:46;;;;;;;;;;;16.80;89.70;;;;;;5012937;28;20371;-70
2023/11/24 13:34:14;;;;;;;;;;;16.80;89.50;;;;;;5012779;28;20330;-70
2023/11/24 13:36:41;;;;;;;;;;;16.80;89.70;;;;;;5012979;28;19909;-70
2023/11/24 13:39:14;;;;;;;;;;;16.80;89.50;;;;;;5012858;28;19917;-71
2023/11/24 13:41:40;;;;;;;;;;;16.80;84.50;;;;;;4996272;28;20381;-72
2023/11/24 13:44:06;;;;;;;;;;;16.70;89.90;;;;;;5012723;28;20028;-72
2023/11/24 13:46:33;;;;;;;;;;;16.60;89.00;;;;;;5013308;28;20292;-76
2023/11/24 13:48:59;;;;;;;;;;;16.40;88.40;;;;;;5012841;28;19920;-75
2023/11/24 13:51:24;;;;;;;;;;;16.60;89.40;;;;;;5012759;28;19910;-82
2023/11/24 13:53:51;;;;;;;;;;;16.50;88.70;;;;;;5011476;28;19909;-82
2023/11/24 13:56:18;;;;;;;;;;;16.70;89.70;;;;;;5012872;28;19909;-80
2023/11/24 13:58:44;;;;;;;;;;;16.50;89.80;;;;;;5013195;28;19916;-71
2023/11/24 14:01:10;;;;;;;;;;;16.40;89.10;;;;;;5012574;28;19944;-71
2023/11/24 14:03:35;;;;;;;;;;;16.40;89.50;;;;;;5012449;28;19976;-71
2023/11/24 14:06:01;;;;;;;;;;;16.60;90.00;;;;;;5012383;28;19968;-72
2023/11/24 14:08:26;;;;;;;;;;;16.40;90.00;;;;;;4995350;28;20273;-72
2023/11/24 14:10:51;;;;;;;;;;;16.40;90.10;;;;;;5012503;28;19979;-71
2023/11/24 14:13:17;;;;;;;;;;;16.40;90.10;;;;;;5012902;28;20392;-71